Time;durP1;ratioP1;P1;durP2;ratioP2;P2;SDS_P1;SDS_P2;PMS_P1;PMS_P2;Temp;Humidity;BMP_temperature;BMP_pressure;BME280_temperature;BME280_humidity;BME280_pressure;Samples;Min_cycle;Max_cycle;Signal;HPM_P1;HPM_P2
2022/11/14 00:02:23;;;;;;;17.30;13.30;;;;;;;10.24;77.16;101694.68;103012;1315;25313;-80
2022/11/14 00:05:08;;;;;;;16.20;13.90;;;;;;;10.22;77.21;101691.66;103354;1309;22477;-82
2022/11/14 00:07:53;;;;;;;16.50;12.90;;;;;;;10.22;77.21;101696.41;103469;1310;22792;-80
2022/11/14 00:10:38;;;;;;;15.70;12.90;;;;;;;10.23;77.14;101694.84;103993;1304;24275;-81
2022/11/14 00:13:23;;;;;;;17.70;14.30;;;;;;;10.22;77.24;101695.53;103942;1304;22536;-81
2022/11/14 00:16:07;;;;;;;17.20;14.00;;;;;;;10.23;77.33;101692.02;104142;1304;22852;-80
2022/11/14 00:18:52;;;;;;;18.00;14.70;;;;;;;10.20;77.03;101690.41;104321;1304;22501;-80
2022/11/14 00:21:37;;;;;;;17.80;13.60;;;;;;;10.14;77.00;101688.41;104117;1303;22466;-79
2022/11/14 00:24:21;;;;;;;17.90;14.20;;;;;;;10.11;77.09;101687.11;104202;1304;22470;-81
2022/11/14 00:27:06;;;;;;;17.20;13.50;;;;;;;10.13;77.24;101687.14;104550;1304;22616;-82
2022/11/14 00:29:51;;;;;;;17.40;14.30;;;;;;;10.16;77.40;101687.52;104114;1304;24237;-84
2022/11/14 00:32:36;;;;;;;15.60;13.00;;;;;;;10.19;77.29;101689.52;103987;1304;22515;-85
2022/11/14 00:35:21;;;;;;;16.10;13.40;;;;;;;10.20;77.15;101690.77;103988;1304;23879;-84
2022/11/14 00:38:06;;;;;;;16.20;12.70;;;;;;;10.14;76.95;101686.45;103927;1304;24361;-83
2022/11/14 00:40:51;;;;;;;16.40;11.80;;;;;;;10.10;77.04;101687.81;103864;1304;22456;-83
2022/11/14 00:43:35;;;;;;;15.50;12.10;;;;;;;10.09;77.09;101681.47;104953;1304;22465;-85
2022/11/14 00:46:20;;;;;;;13.40;11.80;;;;;;;10.07;77.18;101680.20;104287;1304;22489;-84
2022/11/14 00:49:05;;;;;;;13.70;11.60;;;;;;;10.09;77.35;101678.30;104539;1304;24359;-79
2022/11/14 00:51:50;;;;;;;12.10;10.60;;;;;;;10.10;77.29;101673.38;103726;1303;22708;-79
2022/11/14 00:54:35;;;;;;;12.90;11.40;;;;;;;10.10;77.33;101671.27;103619;1304;22467;-77
2022/11/14 00:57:20;;;;;;;12.30;10.30;;;;;;;10.09;77.10;101670.73;104518;1304;22469;-83
2022/11/14 01:00:06;;;;;;;12.40;10.00;;;;;;;10.08;77.07;101668.60;104965;1304;22422;-82
2022/11/14 01:02:55;;;;;;;14.00;10.80;;;;;;;10.06;76.85;101673.86;104637;1304;26724;-81
2022/11/14 01:05:50;;;;;;;11.10;9.20;;;;;;;10.04;76.98;101668.55;104472;1304;22487;-82
2022/11/14 01:08:35;;;;;;;12.80;10.90;;;;;;;10.06;76.97;101658.55;104334;1304;24242;-81
2022/11/14 01:11:21;;;;;;;11.30;9.70;;;;;;;10.07;76.94;101652.21;104470;1304;22470;-80
2022/11/14 01:14:07;;;;;;;11.30;10.10;;;;;;;10.06;77.03;101655.90;105564;1304;22590;-83
2022/11/14 01:16:52;;;;;;;11.10;9.90;;;;;;;10.05;76.76;101655.88;104842;1304;25490;-81
2022/11/14 01:19:36;;;;;;;10.80;9.70;;;;;;;10.02;76.92;101655.68;104441;1304;22491;-79
2022/11/14 01:22:22;;;;;;;11.90;9.80;;;;;;;10.02;76.83;101650.21;104059;1304;24237;-81
2022/11/14 01:25:07;;;;;;;11.20;9.20;;;;;;;10.00;76.87;101644.02;105050;1304;22473;-79
2022/11/14 01:27:52;;;;;;;10.30;8.90;;;;;;;9.98;76.82;101646.29;105199;1300;22623;-79
2022/11/14 01:30:37;;;;;;;11.50;9.50;;;;;;;9.99;76.89;101640.14;106720;1304;22058;-79
2022/11/14 01:33:25;;;;;;;11.60;9.70;;;;;;;9.99;76.78;101637.85;106690;1304;22463;-80
2022/11/14 01:36:11;;;;;;;10.70;9.20;;;;;;;9.95;76.55;101632.15;106420;1311;22708;-80
2022/11/14 01:38:57;;;;;;;12.10;8.50;;;;;;;9.82;76.49;101632.00;106087;1311;22853;-82
2022/11/14 01:41:41;;;;;;;11.00;9.60;;;;;;;9.79;76.51;101629.67;104748;1311;22445;-82
2022/11/14 01:44:49;;;;;;;10.70;9.00;;;;;;;9.80;76.98;101626.15;103490;1289;24238;-82
2022/11/14 01:47:36;;;;;;;12.00;9.70;;;;;;;9.85;76.95;101624.66;103426;1310;25963;-86
2022/11/14 01:50:20;;;;;;;;;;;;;;;9.83;76.74;101622.33;103593;1317;25662;-82
2022/11/14 01:53:05;;;;;;;12.40;9.80;;;;;;;9.79;76.83;101620.68;104416;1318;22498;-82
2022/11/14 01:55:53;;;;;;;11.30;9.70;;;;;;;9.72;76.80;101619.02;104677;1315;24289;-83
2022/11/14 01:58:42;;;;;;;10.00;8.40;;;;;;;9.74;77.10;101619.92;104099;1315;23982;-83
2022/11/14 02:01:33;;;;;;;10.50;9.00;;;;;;;9.75;76.97;101619.05;104711;1315;22468;-82
2022/11/14 02:04:35;;;;;;;11.40;9.10;;;;;;;9.77;77.05;101620.84;103845;1315;24377;-78
2022/11/14 02:07:21;;;;;;;10.70;9.50;;;;;;;9.75;76.91;101611.50;103068;1313;22478;-78
2022/11/14 02:10:16;;;;;;;10.30;9.10;;;;;;;9.73;76.77;101609.70;103329;1309;22517;-81
2022/11/14 02:13:01;;;;;;;12.30;9.40;;;;;;;9.68;76.96;101611.73;103589;1304;22480;-82
2022/11/14 02:15:46;;;;;;;12.90;9.10;;;;;;;9.67;77.13;101607.52;103788;1304;22456;-80
2022/11/14 02:18:30;;;;;;;10.10;8.90;;;;;;;9.70;77.33;101603.86;103680;1304;22437;-80
2022/11/14 02:21:16;;;;;;;10.20;9.20;;;;;;;9.72;77.26;101607.94;103805;1304;22524;-81
2022/11/14 02:24:01;;;;;;;12.60;10.70;;;;;;;9.74;77.06;101606.20;103825;1304;22468;-81
2022/11/14 02:26:46;;;;;;;11.20;9.80;;;;;;;9.69;76.87;101598.56;103470;1304;22463;-74
2022/11/14 02:29:32;;;;;;;13.00;9.60;;;;;;;9.65;77.00;101595.88;103556;1304;22852;-75
2022/11/14 02:32:17;;;;;;;;;;;;;;;9.62;77.17;101595.83;103663;1304;24316;-76
2022/11/14 02:35:03;;;;;;;9.30;8.30;;;;;;;9.62;77.37;101594.61;103627;1304;22469;-75
2022/11/14 02:37:49;;;;;;;11.60;9.60;;;;;;;9.66;77.66;101588.33;103517;1302;22467;-74
2022/11/14 02:40:33;;;;;;;12.60;10.90;;;;;;;9.73;77.68;101594.93;103532;1282;25325;-75
2022/11/14 02:43:18;;;;;;;11.00;9.80;;;;;;;9.77;77.64;101596.90;103646;1304;22494;-77
2022/11/14 02:46:03;;;;;;;12.80;10.30;;;;;;;9.80;77.62;101589.21;103588;1304;22466;-74
2022/11/14 02:48:50;;;;;;;11.90;10.60;;;;;;;9.78;77.43;101586.20;103570;1304;25314;-74
2022/11/14 02:51:35;;;;;;;11.00;9.80;;;;;;;9.77;77.64;101583.90;103603;1304;25250;-74
2022/11/14 02:54:20;;;;;;;11.80;10.50;;;;;;;9.76;77.86;101580.54;103485;1304;25251;-74
2022/11/14 02:57:04;;;;;;;15.70;12.50;;;;;;;9.75;77.88;101580.89;103619;1304;24257;-74
2022/11/14 02:59:49;;;;;;;15.70;13.30;;;;;;;9.72;77.94;101580.14;103524;1304;26482;-75
2022/11/14 03:02:33;;;;;;;16.40;14.30;;;;;;;9.69;77.96;101580.63;103600;1304;22748;-75
2022/11/14 03:05:19;;;;;;;14.90;13.10;;;;;;;9.57;77.94;101575.88;103638;1304;23267;-78
2022/11/14 03:08:04;;;;;;;15.10;12.70;;;;;;;9.45;78.03;101578.54;103676;1304;22462;-78
2022/11/14 03:10:48;;;;;;;16.50;14.70;;;;;;;9.41;78.51;101574.44;103572;1304;24326;-79
2022/11/14 03:13:34;;;;;;;21.50;14.70;;;;;;;9.44;78.90;101574.66;103615;1304;24270;-78
2022/11/14 03:16:19;;;;;;;16.20;14.40;;;;;;;9.47;78.92;101571.01;103569;1304;22547;-76
2022/11/14 03:19:03;;;;;;;16.90;14.30;;;;;;;9.50;79.00;101573.16;103737;1304;25074;-77
2022/11/14 03:21:48;;;;;;;15.40;13.40;;;;;;;9.51;79.13;101572.82;103587;1304;25560;-79
2022/11/14 03:24:33;;;;;;;16.40;13.30;;;;;;;9.50;78.81;101570.86;103639;1304;22458;-77
2022/11/14 03:27:18;;;;;;;15.20;12.00;;;;;;;9.50;78.84;101570.34;103575;1304;25389;-77
2022/11/14 03:30:04;;;;;;;13.80;12.20;;;;;;;9.49;78.89;101558.90;103576;1307;25252;-79
2022/11/14 03:32:49;;;;;;;13.70;12.20;;;;;;;9.47;78.95;101565.20;103616;1304;22609;-78
2022/11/14 03:35:33;;;;;;;14.90;13.20;;;;;;;9.49;79.18;101566.09;103676;1287;24816;-76
2022/11/14 03:38:23;;;;;;;14.50;11.80;;;;;;;9.53;79.14;101564.05;103623;1303;24704;-75
2022/11/14 03:41:07;;;;;;;12.80;11.40;;;;;;;9.56;78.69;101558.98;103584;1289;26953;-76
2022/11/14 03:43:53;;;;;;;13.30;12.00;;;;;;;9.53;78.64;101556.15;103223;1310;25340;-77
2022/11/14 03:46:37;;;;;;;12.90;11.20;;;;;;;9.53;78.66;101556.67;103217;1309;25338;-79
2022/11/14 03:49:22;;;;;;;14.30;12.40;;;;;;;9.52;78.66;101551.54;103216;1310;22879;-79
2022/11/14 03:52:07;;;;;;;14.10;12.30;;;;;;;9.50;78.75;101550.81;103101;1310;25260;-78
2022/11/14 03:54:51;;;;;;;14.80;11.90;;;;;;;9.50;78.83;101553.28;103060;1309;22476;-74
2022/11/14 03:57:36;;;;;;;12.90;11.40;;;;;;;9.51;78.71;101549.42;103179;1309;22467;-78
2022/11/14 04:00:21;;;;;;;11.90;10.70;;;;;;;9.53;78.72;101548.05;103149;1309;22471;-76
2022/11/14 04:03:06;;;;;;;13.60;11.00;;;;;;;9.53;78.75;101545.59;103417;1307;22509;-76
2022/11/14 04:05:50;;;;;;;14.40;11.70;;;;;;;9.56;78.85;101544.39;103698;1304;22476;-76
2022/11/14 04:08:38;;;;;;;12.70;11.40;;;;;;;9.58;78.70;101544.06;103696;1304;22600;-75
2022/11/14 04:11:23;;;;;;;13.90;12.20;;;;;;;9.52;78.34;101539.95;103741;1304;23870;-73
2022/11/14 04:14:09;;;;;;;12.20;10.90;;;;;;;9.35;78.11;101541.10;103650;1304;22466;-73
2022/11/14 04:16:54;;;;;;;13.50;11.40;;;;;;;9.27;78.50;101541.17;103069;1309;25434;-78
2022/11/14 04:19:38;;;;;;;11.90;10.00;;;;;;;9.28;78.82;101542.24;103286;1310;22504;-73
2022/11/14 04:22:23;;;;;;;11.20;10.00;;;;;;;9.28;78.83;101541.89;103198;1310;22603;-74
2022/11/14 04:25:08;;;;;;;12.20;9.50;;;;;;;9.26;78.58;101541.69;103131;1294;24555;-76
2022/11/14 04:27:53;;;;;;;11.10;9.50;;;;;;;9.20;78.43;101537.55;103168;1310;25653;-77
2022/11/14 04:30:39;;;;;;;10.70;9.60;;;;;;;9.12;78.63;101534.45;103253;1310;22493;-78
2022/11/14 04:33:23;;;;;;;12.20;8.70;;;;;;;9.14;78.87;101531.30;103258;1310;22473;-74
2022/11/14 04:36:09;;;;;;;9.50;8.30;;;;;;;9.14;78.85;101526.38;103598;1304;26605;-77
2022/11/14 04:38:54;;;;;;;10.70;8.70;;;;;;;9.13;78.72;101524.45;103624;1304;24048;-80
2022/11/14 04:41:39;;;;;;;9.50;8.40;;;;;;;9.11;78.89;101527.23;103614;1304;24301;-76
2022/11/14 04:44:23;;;;;;;10.30;8.30;;;;;;;9.11;78.91;101523.54;103621;1304;22454;-76
2022/11/14 04:47:08;;;;;;;9.20;7.60;;;;;;;9.13;79.00;101523.21;103619;1304;24246;-75
2022/11/14 04:49:53;;;;;;;9.30;8.00;;;;;;;9.20;79.06;101526.14;103758;1304;22466;-76
2022/11/14 04:52:37;;;;;;;7.80;7.10;;;;;;;9.19;78.76;101524.19;103454;1304;22480;-75
2022/11/14 04:55:22;;;;;;;9.90;8.10;;;;;;;9.15;78.68;101519.39;103601;1303;24340;-76
2022/11/14 04:58:08;;;;;;;10.90;9.00;;;;;;;9.12;78.80;101518.63;103536;1304;22466;-75
2022/11/14 05:00:52;;;;;;;10.60;9.20;;;;;;;9.04;78.98;101518.69;103448;1304;24330;-74
2022/11/14 05:03:37;;;;;;;10.30;8.10;;;;;;;9.05;79.20;101520.98;103437;1289;24414;-75
2022/11/14 05:06:22;;;;;;;9.90;8.80;;;;;;;9.07;79.37;101518.20;103094;1313;24183;-76
2022/11/14 05:09:07;;;;;;;9.10;8.10;;;;;;;9.07;79.34;101517.85;103319;1312;22588;-76
2022/11/14 05:11:52;;;;;;;10.80;9.50;;;;;;;9.11;79.64;101515.98;103618;1312;22500;-76
2022/11/14 05:14:36;;;;;;;11.10;8.40;;;;;;;9.06;78.81;101507.83;103727;1312;22777;-77
2022/11/14 05:17:21;;;;;;;8.70;7.80;;;;;;;8.92;79.09;101507.78;103902;1312;22478;-75
2022/11/14 05:20:06;;;;;;;8.50;7.30;;;;;;;8.94;79.56;101505.52;103627;1312;26610;-76
2022/11/14 05:22:55;;;;;;;8.10;6.70;;;;;;;9.02;79.69;101506.01;103448;1313;22516;-81
2022/11/14 05:25:40;;;;;;;8.90;7.10;;;;;;;9.05;79.47;101508.33;104625;1304;22545;-74
2022/11/14 05:28:24;;;;;;;9.10;7.50;;;;;;;9.07;79.21;101512.77;103649;1304;22737;-79
2022/11/14 05:31:13;;;;;;;8.70;7.80;;;;;;;9.05;79.29;101508.52;103438;1307;23078;-77
2022/11/14 05:33:58;;;;;;;7.90;7.10;;;;;;;9.06;79.41;101502.55;103650;1304;22465;-74
2022/11/14 05:36:42;;;;;;;8.30;7.30;;;;;;;9.06;79.10;101505.01;103725;1304;25376;-78
2022/11/14 05:39:27;;;;;;;9.10;8.10;;;;;;;9.07;79.28;101502.56;103591;1304;22478;-81
2022/11/14 05:42:12;;;;;;;9.00;7.80;;;;;;;9.07;79.20;101506.26;103448;1304;22542;-75
2022/11/14 05:44:57;;;;;;;8.30;7.40;;;;;;;9.11;79.37;101510.17;103529;1304;22597;-75
2022/11/14 05:47:41;;;;;;;9.80;8.60;;;;;;;9.11;79.14;101512.11;103650;1304;22473;-76
2022/11/14 05:50:26;;;;;;;10.80;8.10;;;;;;;9.12;79.30;101509.66;103485;1307;22543;-76
2022/11/14 05:53:11;;;;;;;8.90;8.00;;;;;;;9.13;79.04;101511.96;103755;1304;22472;-90
2022/11/14 05:56:04;;;;;;;8.90;7.80;;;;;;;9.15;79.02;101511.83;103972;1304;22466;-78
2022/11/14 05:58:48;;;;;;;7.20;6.50;;;;;;;9.14;78.92;101509.52;103725;1310;22926;-80
2022/11/14 06:01:33;;;;;;;9.10;7.10;;;;;;;9.11;79.00;101508.09;103505;1310;22473;-79
2022/11/14 06:04:18;;;;;;;7.80;7.00;;;;;;;9.10;78.92;101511.75;103435;1292;24422;-80
2022/11/14 06:07:03;;;;;;;7.10;6.40;;;;;;;9.11;79.12;101511.41;103437;1308;24326;-79
2022/11/14 06:09:47;;;;;;;7.40;6.60;;;;;;;9.14;79.39;101512.86;103591;1308;25449;-80
2022/11/14 06:12:32;;;;;;;7.40;6.50;;;;;;;9.16;79.03;101510.78;103538;1308;25324;-80
2022/11/14 06:15:17;;;;;;;7.60;6.80;;;;;;;9.18;79.17;101514.50;103519;1306;22474;-80
2022/11/14 06:18:02;;;;;;;9.50;7.10;;;;;;;9.15;78.71;101513.92;103536;1310;22569;-79
2022/11/14 06:20:47;;;;;;;8.00;7.20;;;;;;;9.12;78.81;101516.52;103584;1310;22459;-78
2022/11/14 06:23:32;;;;;;;10.00;7.20;;;;;;;9.09;78.88;101517.36;103664;1289;22819;-86
2022/11/14 06:26:31;;;;;;;7.80;6.90;;;;;;;9.10;79.06;101514.21;103448;1304;25919;-74
2022/11/14 06:29:16;;;;;;;7.30;6.50;;;;;;;9.16;79.03;101521.50;103460;1290;24288;-77
2022/11/14 06:32:01;;;;;;;10.00;8.40;;;;;;;9.18;78.81;101524.52;103558;1304;24535;-75
2022/11/14 06:34:45;;;;;;;8.20;6.90;;;;;;;9.18;79.01;101526.27;103697;1307;25212;-82
2022/11/14 06:37:30;;;;;;;9.70;7.80;;;;;;;9.21;79.00;101525.80;103028;1295;22650;-81
2022/11/14 06:40:19;;;;;;;9.40;6.40;;;;;;;9.21;78.87;101526.68;103099;1310;22490;-79
2022/11/14 06:43:03;;;;;;;8.70;7.10;;;;;;;9.22;78.72;101530.56;103061;1311;22460;-79
2022/11/14 06:45:48;;;;;;;8.40;6.70;;;;;;;9.26;78.67;101527.10;103169;1310;26551;-81
2022/11/14 06:48:34;;;;;;;8.50;6.40;;;;;;;9.32;78.79;101533.86;102919;1310;22481;-79
2022/11/14 06:51:19;;;;;;;;;;;;;;;9.39;78.65;101531.33;103151;1310;24354;-79
2022/11/14 06:54:04;;;;;;;8.00;6.70;;;;;;;9.43;78.28;101529.98;103099;1310;26025;-79
2022/11/14 06:56:49;;;;;;;7.30;6.40;;;;;;;9.40;78.06;101530.30;103709;1304;22461;-79
2022/11/14 06:59:33;;;;;;;7.80;5.70;;;;;;;9.38;78.02;101530.59;103405;1304;22651;-79
2022/11/14 07:02:18;;;;;;;8.30;6.00;;;;;;;9.38;77.82;101533.59;103573;1304;22466;-78
2022/11/14 07:05:07;;;;;;;5.90;5.00;;;;;;;9.30;77.19;101529.98;103746;1307;22463;-79
2022/11/14 07:07:51;;;;;;;5.90;5.30;;;;;;;9.21;76.87;101531.08;103851;1307;25311;-78
2022/11/14 07:10:36;;;;;;;9.70;6.50;;;;;;;9.09;76.87;101534.59;103848;1304;22598;-82
2022/11/14 07:13:21;;;;;;;9.40;6.00;;;;;;;9.00;77.35;101533.23;103594;1307;22455;-80
2022/11/14 07:16:06;;;;;;;6.60;5.90;;;;;;;8.98;77.53;101532.13;103628;1304;25735;-80
2022/11/14 07:18:52;;;;;;;6.50;5.30;;;;;;;8.99;77.71;101529.16;103649;1307;22478;-80
2022/11/14 07:21:37;;;;;;;6.50;5.50;;;;;;;9.02;78.01;101528.16;103702;1304;25907;-87
2022/11/14 07:24:22;;;;;;;6.80;6.10;;;;;;;9.10;78.21;101524.39;103493;1304;22425;-80
2022/11/14 07:27:09;;;;;;;6.40;5.80;;;;;;;9.13;77.95;101524.80;103557;1295;23097;-78
2022/11/14 07:29:54;;;;;;;7.10;6.40;;;;;;;9.06;77.45;101525.05;103482;1304;25267;-79
2022/11/14 07:32:39;;;;;;;7.70;6.90;;;;;;;9.01;77.57;101520.04;103631;1304;25245;-80
2022/11/14 07:35:25;;;;;;;8.10;6.80;;;;;;;8.99;77.60;101522.12;103593;1303;22826;-78
2022/11/14 07:38:09;;;;;;;8.60;7.70;;;;;;;8.92;77.49;101518.33;103677;1293;24248;-79
2022/11/14 07:40:56;;;;;;;10.00;7.50;;;;;;;8.85;77.79;101514.88;103661;1304;22842;-79
2022/11/14 07:43:44;;;;;;;8.80;7.90;;;;;;;8.82;78.22;101515.36;103435;1285;24323;-79
2022/11/14 07:46:29;;;;;;;9.90;8.20;;;;;;;8.87;78.50;101512.80;103404;1295;23204;-78
2022/11/14 07:49:14;;;;;;;9.70;7.70;;;;;;;8.90;78.68;101516.19;103669;1304;24378;-78
2022/11/14 07:51:59;;;;;;;9.80;7.60;;;;;;;8.92;78.40;101517.80;103624;1304;24247;-77
2022/11/14 07:54:44;;;;;;;8.80;6.90;;;;;;;8.86;78.15;101517.53;103605;1304;25898;-78
2022/11/14 07:57:28;;;;;;;7.90;6.90;;;;;;;8.80;78.32;101517.27;103542;1304;24393;-78
2022/11/14 08:00:14;;;;;;;8.00;6.60;;;;;;;8.79;78.36;101514.79;103358;1304;22457;-78
2022/11/14 08:02:58;;;;;;;7.40;6.10;;;;;;;8.77;78.53;101514.58;103504;1304;22473;-79
2022/11/14 08:05:44;;;;;;;7.80;6.00;;;;;;;8.76;78.26;101510.00;103525;1304;22649;-80
2022/11/14 08:08:28;;;;;;;8.40;6.00;;;;;;;8.76;78.25;101510.69;103453;1304;23617;-79
2022/11/14 08:11:15;;;;;;;8.20;5.70;;;;;;;8.76;78.34;101512.81;103289;1304;25613;-79
2022/11/14 08:14:19;;;;;;;6.40;5.20;;;;;;;8.79;78.46;101501.44;103416;1304;22600;-78
2022/11/14 08:17:04;;;;;;;6.80;5.40;;;;;;;8.81;78.25;101503.75;103552;1304;23578;-78
2022/11/14 08:19:48;;;;;;;5.90;5.10;;;;;;;8.88;78.43;101501.23;103469;1304;22580;-78
2022/11/14 08:22:33;;;;;;;8.00;4.90;;;;;;;8.99;78.41;101497.87;103410;1304;22461;-77
2022/11/14 08:25:18;;;;;;;5.50;5.00;;;;;;;9.09;78.25;101497.84;103317;1306;22549;-78
2022/11/14 08:28:02;;;;;;;8.40;5.10;;;;;;;9.12;77.91;101493.85;103394;1304;24278;-79
2022/11/14 08:30:47;;;;;;;7.90;5.30;;;;;;;9.12;77.40;101490.69;103517;1304;22498;-79
2022/11/14 08:33:31;;;;;;;7.40;5.20;;;;;;;9.09;77.36;101490.46;103546;1287;24381;-79
2022/11/14 08:36:16;;;;;;;6.60;5.90;;;;;;;9.07;77.20;101486.57;103370;1304;25144;-78
2022/11/14 08:39:01;;;;;;;7.30;5.20;;;;;;;9.07;77.23;101487.45;103405;1304;24320;-79
2022/11/14 08:41:47;;;;;;;8.30;5.60;;;;;;;9.08;77.48;101483.61;103620;1288;24330;-79
2022/11/14 08:44:31;;;;;;;7.40;5.80;;;;;;;9.12;77.63;101484.72;103527;1302;23871;-80
2022/11/14 08:47:16;;;;;;;6.80;5.20;;;;;;;9.12;77.60;101482.61;103687;1295;24356;-80
2022/11/14 08:50:01;;;;;;;6.40;5.80;;;;;;;9.12;77.69;101481.72;103006;1309;25325;-79
2022/11/14 08:52:50;;;;;;;9.70;6.00;;;;;;;9.10;77.62;101481.17;103060;1309;25465;-79
2022/11/14 08:55:35;;;;;;;6.90;6.00;;;;;;;9.07;77.73;101484.64;102992;1309;22478;-77
2022/11/14 08:58:20;;;;;;;6.40;4.90;;;;;;;9.01;77.56;101480.34;103122;1309;25254;-78
2022/11/14 09:01:06;;;;;;;5.10;4.60;;;;;;;8.97;77.62;101477.30;103045;1310;25219;-78
2022/11/14 09:03:51;;;;;;;4.70;4.30;;;;;;;8.96;77.61;101476.93;103039;1294;25663;-79
2022/11/14 09:06:45;;;;;;;4.70;4.20;;;;;;;8.99;77.54;101471.36;102984;1309;22480;-80
2022/11/14 09:09:30;;;;;;;4.40;3.50;;;;;;;9.02;77.46;101472.80;103459;1304;24085;-79
2022/11/14 09:12:16;;;;;;;3.60;2.90;;;;;;;9.03;76.78;101467.72;103522;1304;23787;-79
2022/11/14 09:15:01;;;;;;;3.80;3.00;;;;;;;9.00;76.64;101465.21;103667;1304;24561;-79
2022/11/14 09:17:46;;;;;;;7.20;3.10;;;;;;;9.03;76.86;101462.63;103455;1293;23200;-84
2022/11/14 09:20:31;;;;;;;4.40;3.80;;;;;;;9.09;76.79;101458.48;103568;1304;24282;-79
2022/11/14 09:23:24;;;;;;;5.60;3.20;;;;;;;9.11;76.71;101455.17;103526;1304;24035;-80
2022/11/14 09:26:09;;;;;;;3.80;3.20;;;;;;;9.08;76.25;101454.44;103640;1304;24294;-80
2022/11/14 09:28:54;;;;;;;4.10;3.50;;;;;;;8.97;75.98;101451.98;103631;1304;23256;-79
2022/11/14 09:31:38;;;;;;;3.50;3.20;;;;;;;8.88;76.18;101445.35;103567;1303;25329;-80
2022/11/14 09:34:23;;;;;;;5.40;3.70;;;;;;;8.91;76.57;101439.44;103612;1304;22457;-84
2022/11/14 09:37:08;;;;;;;4.60;3.90;;;;;;;8.97;76.82;101441.27;103437;1304;22553;-80
2022/11/14 09:39:53;;;;;;;4.20;3.90;;;;;;;9.01;76.90;101439.58;103555;1304;22502;-78
2022/11/14 09:43:15;;;;;;;4.60;3.90;;;;;;;9.05;76.97;101437.17;103469;1304;22463;-79
2022/11/14 09:46:01;;;;;;;4.70;3.80;;;;;;;9.03;76.71;101437.33;103476;1304;23534;-80
2022/11/14 09:48:47;;;;;;;6.20;3.90;;;;;;;9.07;76.80;101431.92;103384;1304;25309;-80
2022/11/14 09:51:41;;;;;;;4.30;4.00;;;;;;;9.10;76.90;101435.13;103566;1303;25354;-81
2022/11/14 09:54:34;;;;;;;5.00;4.50;;;;;;;9.12;76.94;101433.73;103603;1304;25412;-79
2022/11/14 09:57:20;;;;;;;5.40;4.90;;;;;;;9.15;76.89;101426.41;103559;1304;23883;-81
2022/11/14 10:00:46;;;;;;;7.90;5.60;;;;;;;9.11;76.51;101429.17;103383;1304;22483;-81
2022/11/14 10:03:52;;;;;;;6.70;5.80;;;;;;;9.04;76.77;101428.38;103422;1304;25256;-81
2022/11/14 10:07:18;;;;;;;7.00;5.90;;;;;;;9.06;76.92;101430.33;103523;1304;24339;-79
2022/11/14 10:10:24;;;;;;;9.00;6.10;;;;;;;9.14;77.21;101432.02;103540;1304;22447;-78
2022/11/14 10:13:27;;;;;;;7.90;6.30;;;;;;;9.17;76.50;101427.84;103607;1304;24266;-79
2022/11/14 10:16:22;;;;;;;5.10;4.50;;;;;;;9.21;76.38;101427.20;103535;1303;24359;-79
2022/11/14 10:19:41;;;;;;;4.50;4.10;;;;;;;9.23;76.05;101424.23;103548;1304;22865;-79
2022/11/14 10:22:50;;;;;;;4.90;4.10;;;;;;;9.21;75.72;101424.20;103481;1304;22475;-79
2022/11/14 10:26:08;;;;;;;4.40;3.50;;;;;;;9.18;75.90;101417.67;103478;1303;22464;-78
2022/11/14 10:29:28;;;;;;;5.50;4.20;;;;;;;9.20;76.13;101419.62;103537;1304;24936;-79
2022/11/14 10:32:28;;;;;;;4.80;3.40;;;;;;;9.21;75.73;101415.42;103515;1304;22472;-78
2022/11/14 10:35:23;;;;;;;3.70;3.30;;;;;;;9.15;75.44;101414.11;103495;1303;24025;-78
2022/11/14 10:38:08;;;;;;;5.20;3.90;;;;;;;9.13;75.46;101408.63;103544;1303;22834;-80
2022/11/14 10:40:57;;;;;;;5.10;4.30;;;;;;;9.08;75.57;101404.00;103400;1304;22474;-80
2022/11/14 10:43:43;;;;;;;6.00;4.10;;;;;;;9.10;75.74;101398.23;103486;1288;24401;-78
2022/11/14 10:46:36;;;;;;;4.20;3.90;;;;;;;9.11;75.65;101395.60;103389;1304;24247;-79
2022/11/14 10:49:23;;;;;;;5.50;5.00;;;;;;;9.05;75.28;101391.48;103455;1304;23743;-78
2022/11/14 10:52:23;;;;;;;5.70;5.30;;;;;;;8.99;75.68;101390.70;103491;1304;22480;-78
2022/11/14 10:55:17;;;;;;;6.10;5.10;;;;;;;8.99;75.77;101386.84;103487;1304;24241;-78
2022/11/14 10:58:09;;;;;;;5.30;4.90;;;;;;;8.98;75.92;101383.48;103676;1304;22858;-78
2022/11/14 11:00:54;;;;;;;5.40;4.70;;;;;;;9.00;76.10;101385.45;103660;1304;22538;-83
2022/11/14 11:03:42;;;;;;;4.50;4.10;;;;;;;9.03;75.91;101385.14;103568;1304;22734;-81
2022/11/14 11:06:28;;;;;;;5.20;4.70;;;;;;;9.07;75.87;101376.73;103616;1304;22454;-79
2022/11/14 11:12:36;;;;;;;5.20;4.70;;;;;;;9.02;75.85;101366.86;103509;1304;24681;-81
2022/11/14 11:15:23;;;;;;;5.80;5.20;;;;;;;9.03;76.04;101360.55;103655;1302;22472;-81
2022/11/14 11:18:32;;;;;;;5.80;4.90;;;;;;;9.06;76.06;101351.09;104160;1304;22582;-79
2022/11/14 11:21:21;;;;;;;6.60;5.80;;;;;;;9.11;76.25;101346.23;104691;1304;22467;-77
2022/11/14 11:24:08;;;;;;;8.10;7.20;;;;;;;9.10;75.96;101344.98;104408;1304;23883;-80
2022/11/14 11:27:17;;;;;;;8.50;7.70;;;;;;;9.09;76.08;101349.02;103490;1304;22742;-79
2022/11/14 11:30:19;;;;;;;10.90;9.00;;;;;;;9.05;75.84;101339.30;103643;1304;22532;-78
2022/11/14 11:33:23;;;;;;;9.90;8.90;;;;;;;9.01;76.19;101336.81;104519;1304;22510;-80
2022/11/14 11:36:21;;;;;;;10.60;9.20;;;;;;;9.02;76.13;101335.77;104492;1304;22465;-78
2022/11/14 11:39:19;;;;;;;11.40;9.50;;;;;;;9.01;76.27;101324.50;104096;1304;22871;-78
2022/11/14 11:42:11;;;;;;;11.00;9.50;;;;;;;9.02;76.22;101321.16;103328;1308;24471;-80
2022/11/14 11:45:03;;;;;;;12.30;9.50;;;;;;;8.94;75.93;101320.88;103304;1310;22474;-78
2022/11/14 11:47:57;;;;;;;11.30;10.10;;;;;;;8.92;76.43;101325.78;103184;1309;24969;-81
2022/11/14 11:50:42;;;;;;;9.90;8.20;;;;;;;8.87;76.13;101320.63;103178;1308;22469;-79
2022/11/14 11:53:38;;;;;;;9.90;8.20;;;;;;;8.84;76.22;101314.79;103225;1309;22470;-80
2022/11/14 11:56:29;;;;;;;8.50;7.60;;;;;;;8.77;76.19;101309.45;103436;1304;22479;-81
2022/11/14 11:59:40;;;;;;;7.30;6.60;;;;;;;8.72;75.97;101308.30;103834;1304;22997;-79
2022/11/14 12:02:27;;;;;;;7.80;6.40;;;;;;;8.68;76.39;101313.52;103726;1304;24377;-79
2022/11/14 12:05:16;;;;;;;7.10;6.50;;;;;;;8.72;76.58;101316.03;103622;1303;25418;-78
2022/11/14 12:08:03;;;;;;;7.80;5.40;;;;;;;8.72;76.11;101314.64;103702;1303;22477;-84
2022/11/14 12:10:48;;;;;;;8.00;6.50;;;;;;;8.70;76.32;101299.15;103673;1304;25257;-79
2022/11/14 12:14:05;;;;;;;5.90;5.30;;;;;;;8.76;76.22;101299.92;103587;1303;24373;-81
2022/11/14 12:17:08;;;;;;;6.10;5.50;;;;;;;8.73;75.99;101293.92;103627;1304;22469;-82
2022/11/14 12:20:19;;;;;;;10.10;8.10;;;;;;;8.75;76.01;101300.09;103770;1304;23918;-79
2022/11/14 12:23:41;;;;;;;8.10;7.20;;;;;;;8.75;76.06;101294.84;103800;1283;24253;-79
2022/11/14 12:26:52;;;;;;;6.90;6.10;;;;;;;8.77;75.94;101288.54;103801;1304;25541;-80
2022/11/14 12:29:56;;;;;;;8.90;8.00;;;;;;;8.80;75.97;101293.32;103669;1304;25364;-78
2022/11/14 12:33:10;;;;;;;11.10;9.50;;;;;;;8.75;75.57;101287.98;103721;1304;22477;-78
2022/11/14 12:35:58;;;;;;;13.10;11.80;;;;;;;8.76;76.11;101287.81;103679;1304;24336;-77
2022/11/14 12:38:52;;;;;;;14.90;13.40;;;;;;;8.82;76.13;101286.48;103458;1304;22590;-78
2022/11/14 12:41:39;;;;;;;15.00;13.50;;;;;;;8.79;76.12;101291.02;103681;1304;25561;-77
2022/11/14 12:44:27;;;;;;;15.50;14.00;;;;;;;8.76;76.16;101297.66;103780;1303;25377;-78
2022/11/14 12:47:18;;;;;;;15.40;13.80;;;;;;;8.78;76.40;101300.84;103685;1304;22658;-77
2022/11/14 12:50:24;;;;;;;16.80;15.00;;;;;;;8.78;75.98;101301.21;103692;1304;24299;-83
2022/11/14 12:53:35;;;;;;;19.00;17.10;;;;;;;8.70;76.14;101294.94;103673;1304;23468;-77
2022/11/14 12:56:29;;;;;;;22.20;19.80;;;;;;;8.75;76.43;101293.59;103753;1304;22467;-80
2022/11/14 12:59:20;;;;;;;21.10;18.50;;;;;;;8.76;76.11;101293.61;103661;1304;22740;-78
2022/11/14 13:02:35;;;;;;;17.80;15.20;;;;;;;8.66;75.88;101302.80;103588;1304;22487;-82